createdAt,value
2019-02-27T00:00:19.232Z,38.13
2019-02-27T00:02:47.889Z,39.25
2019-02-27T00:05:16.268Z,38.80
2019-02-27T00:07:44.670Z,45.00
2019-02-27T00:10:13.045Z,44.88
2019-02-27T00:12:41.458Z,38.17
2019-02-27T00:15:09.859Z,39.53
2019-02-27T00:17:38.230Z,40.38
2019-02-27T00:20:07.510Z,41.98
2019-02-27T00:22:35.917Z,36.10
2019-02-27T00:25:04.377Z,38.88
2019-02-27T00:27:32.763Z,37.70
2019-02-27T00:30:04.537Z,42.95
2019-02-27T00:32:31.190Z,46.13
2019-02-27T00:34:59.566Z,41.18
2019-02-27T00:37:27.933Z,41.18
2019-02-27T00:39:56.284Z,38.40
2019-02-27T00:42:33.252Z,42.27
2019-02-27T00:44:54.703Z,40.65
2019-02-27T00:47:23.103Z,41.70
2019-02-27T00:49:51.497Z,38.40
2019-02-27T00:52:19.881Z,37.40
2019-02-27T00:54:48.285Z,40.45
2019-02-27T00:57:20.536Z,34.63
2019-02-27T00:59:46.722Z,39.63
2019-02-27T01:02:15.091Z,41.30
2019-02-27T01:04:43.508Z,38.98
2019-02-27T01:07:11.895Z,39.67
2019-02-27T01:09:40.295Z,37.48
2019-02-27T01:12:08.697Z,36.68
2019-02-27T01:14:37.633Z,37.15
2019-02-27T01:17:06.082Z,40.33
2019-02-27T01:19:38.340Z,36.73
2019-02-27T01:22:04.549Z,37.28
2019-02-27T01:24:32.961Z,37.55
2019-02-27T01:27:04.612Z,39.83
2019-02-27T01:29:32.331Z,45.95
2019-02-27T01:32:00.767Z,36.38
2019-02-27T01:34:29.157Z,36.10
2019-02-27T01:36:58.033Z,38.73
2019-02-27T01:39:27.210Z,47.83
2019-02-27T01:41:57.930Z,42.80
2019-02-27T01:44:25.636Z,38.88
2019-02-27T01:46:54.735Z,39.88
2019-02-27T01:49:23.129Z,41.75
2019-02-27T01:51:51.459Z,38.63
2019-02-27T01:54:19.840Z,42.55
2019-02-27T01:56:48.247Z,44.20
2019-02-27T01:59:17.607Z,38.45
2019-02-27T02:01:46.236Z,42.35
2019-02-27T02:04:14.624Z,44.35
2019-02-27T02:06:43.024Z,45.38
2019-02-27T02:09:31.183Z,47.67
2019-02-27T02:12:02.131Z,47.78
2019-02-27T02:14:54.987Z,35.17
2019-02-27T02:17:45.802Z,34.45
2019-02-27T02:20:29.320Z,42.33
2019-02-27T02:23:06.903Z,37.55
2019-02-27T02:25:38.520Z,42.58
2019-02-27T02:28:12.113Z,40.20
2019-02-27T02:31:05.412Z,35.40
2019-02-27T02:33:57.185Z,37.60
2019-02-27T02:36:54.407Z,43.45
2019-02-27T02:39:45.218Z,43.60
2019-02-27T02:42:40.749Z,37.25
2019-02-27T02:45:33.821Z,39.33
2019-02-27T02:48:20.293Z,37.20
2019-02-27T02:51:00.984Z,31.97
2019-02-27T02:53:41.522Z,36.63
2019-02-27T02:56:13.179Z,34.65
2019-02-27T02:59:08.712Z,36.65
2019-02-27T03:01:49.161Z,37.50
2019-02-27T03:04:41.027Z,34.35
2019-02-27T03:07:27.349Z,37.88
2019-02-27T03:10:07.140Z,35.58
2019-02-27T03:12:41.333Z,38.23
2019-02-27T03:15:32.134Z,35.10
2019-02-27T03:18:12.674Z,36.50
2019-02-27T03:20:44.815Z,33.18
2019-02-27T03:23:28.397Z,36.55
2019-02-27T03:26:16.967Z,32.58
2019-02-27T03:29:19.926Z,35.80
2019-02-27T03:32:00.245Z,37.88
2019-02-27T03:34:50.308Z,33.92
2019-02-27T03:37:18.670Z,39.15
2019-02-27T03:40:21.660Z,36.23
2019-02-27T03:43:01.780Z,37.75
2019-02-27T03:45:33.419Z,36.93
2019-02-27T03:48:07.694Z,39.42
2019-02-27T03:50:49.926Z,42.08
2019-02-27T03:53:39.294Z,35.00
2019-02-27T03:56:34.671Z,33.53
2019-02-27T03:59:12.129Z,37.75
2019-02-27T04:02:05.817Z,38.88
2019-02-27T04:04:35.300Z,32.08
2019-02-27T04:07:32.776Z,35.03
2019-02-27T04:10:01.194Z,33.33
2019-02-27T04:12:29.581Z,32.83
2019-02-27T04:14:58.038Z,35.28
2019-02-27T04:17:28.541Z,33.35
2019-02-27T04:19:57.694Z,35.75
2019-02-27T04:22:26.450Z,36.85
2019-02-27T04:24:56.833Z,35.85
2019-02-27T04:27:24.869Z,32.20
2019-02-27T04:29:53.254Z,38.25
2019-02-27T04:32:21.656Z,33.73
2019-02-27T04:34:50.322Z,33.80
2019-02-27T04:37:20.415Z,40.30
2019-02-27T04:39:48.762Z,37.45
2019-02-27T04:42:17.161Z,37.17
2019-02-27T04:44:45.537Z,36.03
2019-02-27T04:47:13.942Z,42.93
2019-02-27T04:49:42.341Z,44.42
2019-02-27T04:52:11.006Z,42.93
2019-02-27T04:54:41.528Z,41.83
2019-02-27T04:57:09.704Z,52.17
2019-02-27T04:59:38.030Z,41.20
2019-02-27T05:02:06.423Z,46.73
2019-02-27T05:04:35.242Z,45.38
2019-02-27T05:07:04.298Z,57.88
2019-02-27T05:09:34.169Z,93.47
2019-02-27T05:12:02.724Z,69.85
2019-02-27T05:14:31.121Z,62.38
2019-02-27T05:16:59.700Z,106.70
2019-02-27T05:19:28.086Z,59.35
2019-02-27T05:21:56.466Z,52.33
2019-02-27T05:24:24.875Z,61.83
2019-02-27T05:26:53.558Z,49.63
2019-02-27T05:29:21.961Z,54.38
2019-02-27T05:31:53.384Z,56.55
2019-02-27T05:34:20.372Z,52.35
2019-02-27T05:36:48.747Z,55.63
2019-02-27T05:39:17.987Z,54.58
2019-02-27T05:41:46.407Z,58.58
2019-02-27T05:44:14.800Z,53.50
2019-02-27T05:46:43.214Z,51.75
2019-02-27T05:49:11.605Z,47.10
2019-02-27T05:51:39.995Z,49.23
2019-02-27T05:54:08.379Z,44.25
2019-02-27T05:56:36.779Z,47.05
2019-02-27T05:59:05.149Z,43.70
2019-02-27T06:01:37.773Z,40.25
2019-02-27T06:04:03.611Z,47.93
2019-02-27T06:06:32.001Z,46.50
2019-02-27T06:09:00.419Z,39.80
2019-02-27T06:11:29.537Z,39.90
2019-02-27T06:13:58.841Z,43.13
2019-02-27T06:16:27.231Z,38.00
2019-02-27T06:18:56.224Z,41.73
2019-02-27T06:21:25.287Z,41.40
2019-02-27T06:23:53.707Z,39.33
2019-02-27T06:26:22.091Z,38.15
2019-02-27T06:28:50.779Z,40.63
2019-02-27T06:31:19.168Z,42.15
2019-02-27T06:33:47.772Z,38.75
2019-02-27T06:36:16.119Z,38.33
2019-02-27T06:38:44.522Z,43.25
2019-02-27T06:41:15.405Z,40.67
2019-02-27T06:43:43.267Z,40.33
2019-02-27T06:46:11.642Z,35.28
2019-02-27T06:48:43.091Z,38.88
2019-02-27T06:51:10.231Z,37.05
2019-02-27T06:53:38.643Z,44.03
2019-02-27T06:56:07.049Z,43.48
2019-02-27T06:58:35.452Z,35.45
2019-02-27T07:01:03.835Z,38.17
2019-02-27T07:03:33.028Z,33.98
2019-02-27T07:06:01.488Z,36.10
2019-02-27T07:08:29.892Z,34.35
2019-02-27T07:11:09.941Z,36.77
2019-02-27T07:13:29.832Z,35.15
2019-02-27T07:15:58.413Z,41.08
2019-02-27T07:18:26.807Z,38.95
2019-02-27T07:20:55.771Z,37.45
2019-02-27T07:23:25.289Z,40.75
2019-02-27T07:25:53.978Z,44.33
2019-02-27T07:28:22.381Z,41.88
2019-02-27T07:30:50.820Z,42.65
2019-02-27T07:33:19.215Z,44.38
2019-02-27T07:35:49.220Z,38.53
2019-02-27T07:38:21.346Z,43.52
2019-02-27T07:40:47.605Z,42.33
2019-02-27T07:43:16.012Z,37.08
2019-02-27T07:45:45.461Z,36.20
2019-02-27T07:48:14.527Z,37.05
2019-02-27T07:50:42.889Z,41.70
2019-02-27T07:53:11.439Z,43.52
2019-02-27T07:55:40.103Z,35.43
2019-02-27T07:58:08.488Z,36.93
2019-02-27T08:00:36.894Z,34.85
2019-02-27T08:03:09.083Z,30.92
2019-02-27T08:05:35.344Z,36.33
2019-02-27T08:08:03.721Z,38.25
2019-02-27T08:10:36.685Z,32.38
2019-02-27T08:13:02.225Z,29.60
2019-02-27T08:15:30.627Z,30.63
2019-02-27T08:17:59.025Z,33.20
2019-02-27T08:20:27.402Z,33.87
2019-02-27T08:22:55.786Z,31.47
2019-02-27T08:25:24.195Z,30.77
2019-02-27T08:27:54.158Z,29.67
2019-02-27T08:30:25.926Z,30.47
2019-02-27T08:32:54.361Z,31.10
2019-02-27T08:35:22.737Z,31.10
2019-02-27T08:37:51.152Z,28.23
2019-02-27T08:40:24.080Z,30.20
2019-02-27T08:42:49.566Z,32.57
2019-02-27T08:45:21.394Z,30.53
2019-02-27T08:47:49.810Z,30.87
2019-02-27T08:50:22.002Z,26.27
2019-02-27T08:52:51.708Z,30.70
2019-02-27T08:55:22.338Z,30.13
2019-02-27T08:57:55.475Z,32.47
2019-02-27T09:00:26.881Z,31.47
2019-02-27T09:02:55.796Z,32.70
2019-02-27T09:05:24.314Z,33.10
2019-02-27T09:07:52.742Z,27.23
2019-02-27T09:10:26.340Z,32.43
2019-02-27T09:13:04.994Z,27.10
2019-02-27T09:15:25.204Z,28.90
2019-02-27T09:17:53.624Z,28.60
2019-02-27T09:20:22.189Z,31.77
2019-02-27T09:22:50.622Z,28.47
2019-02-27T09:25:23.389Z,30.87
2019-02-27T09:27:49.050Z,26.50
2019-02-27T09:30:21.570Z,33.67
2019-02-27T09:32:49.943Z,30.00
2019-02-27T09:35:18.357Z,28.37
2019-02-27T09:37:48.402Z,24.93
2019-02-27T09:40:25.277Z,31.37
2019-02-27T09:42:53.967Z,29.87
2019-02-27T09:45:31.015Z,28.47
2019-02-27T09:48:00.567Z,31.27
2019-02-27T09:50:47.724Z,34.63
2019-02-27T09:53:12.630Z,29.10
2019-02-27T09:55:41.020Z,33.03
2019-02-27T09:58:11.559Z,30.07
2019-02-27T10:00:48.738Z,26.90
2019-02-27T10:03:20.152Z,32.47
2019-02-27T10:05:47.771Z,30.47
2019-02-27T10:08:16.287Z,28.83
2019-02-27T10:10:45.824Z,27.67
2019-02-27T10:13:14.393Z,30.63
2019-02-27T10:15:42.782Z,31.37
2019-02-27T10:18:11.535Z,29.10
2019-02-27T10:20:39.968Z,27.43
2019-02-27T10:23:08.394Z,29.13
2019-02-27T10:25:36.830Z,31.40
2019-02-27T10:28:05.234Z,31.33
2019-02-27T10:30:33.660Z,33.70
2019-02-27T10:33:03.396Z,34.40
2019-02-27T10:35:32.125Z,33.00
2019-02-27T10:38:00.496Z,30.07
2019-02-27T10:40:29.192Z,33.73
2019-02-27T10:42:57.867Z,33.13
2019-02-27T10:45:26.267Z,37.80
2019-02-27T10:47:54.663Z,33.17
2019-02-27T10:50:23.072Z,34.07
2019-02-27T10:52:51.445Z,33.93
2019-02-27T10:55:20.676Z,32.77
2019-02-27T10:57:49.081Z,35.93
2019-02-27T11:00:29.227Z,36.07
2019-02-27T11:02:58.163Z,35.50
2019-02-27T11:05:28.286Z,35.67
2019-02-27T11:07:56.663Z,43.13
2019-02-27T11:10:25.561Z,40.67
2019-02-27T11:12:53.951Z,42.77
2019-02-27T11:15:23.075Z,35.53
2019-02-27T11:17:51.472Z,40.07
2019-02-27T11:20:21.208Z,44.63
2019-02-27T11:22:50.188Z,40.87
2019-02-27T11:25:24.488Z,37.10
2019-02-27T11:27:52.891Z,38.60
2019-02-27T11:30:26.765Z,47.30
2019-02-27T11:32:57.784Z,42.67
2019-02-27T11:35:26.044Z,42.47
2019-02-27T11:37:55.403Z,43.93
2019-02-27T11:40:24.852Z,40.27
2019-02-27T11:42:53.205Z,40.33
2019-02-27T11:45:24.567Z,45.00
2019-02-27T11:47:51.666Z,43.13
2019-02-27T11:50:20.336Z,41.03
2019-02-27T11:52:49.357Z,42.60
2019-02-27T11:55:24.541Z,39.33
2019-02-27T11:57:53.048Z,39.97
2019-02-27T12:00:26.345Z,42.23
2019-02-27T12:02:54.983Z,43.97
2019-02-27T12:05:23.483Z,40.60
2019-02-27T12:07:52.155Z,40.43
2019-02-27T12:10:23.257Z,40.13
2019-02-27T12:12:51.634Z,40.87
2019-02-27T12:15:20.782Z,43.70
2019-02-27T12:17:49.158Z,42.53
2019-02-27T12:20:19.673Z,46.43
2019-02-27T12:22:48.122Z,42.53
2019-02-27T12:25:17.668Z,45.13
2019-02-27T12:27:49.788Z,44.63
2019-02-27T12:30:18.312Z,43.27
2019-02-27T12:32:46.681Z,46.67
2019-02-27T12:35:26.797Z,45.83
2019-02-27T12:37:55.174Z,41.00
2019-02-27T12:40:24.986Z,45.47
2019-02-27T12:42:53.541Z,43.17
2019-02-27T12:45:26.809Z,43.40
2019-02-27T12:47:55.485Z,40.47
2019-02-27T12:50:26.833Z,42.93
2019-02-27T12:52:55.465Z,42.93
2019-02-27T12:55:24.550Z,43.20
2019-02-27T12:57:53.135Z,41.07
2019-02-27T13:00:29.934Z,38.00
2019-02-27T13:02:59.169Z,48.90
2019-02-27T13:05:28.393Z,45.03
2019-02-27T13:07:56.765Z,44.03
2019-02-27T13:10:26.097Z,42.17
2019-02-27T13:12:54.510Z,44.97
2019-02-27T13:15:24.545Z,47.37
2019-02-27T13:17:56.084Z,43.07
2019-02-27T13:20:30.869Z,43.47
2019-02-27T13:23:04.145Z,39.17
2019-02-27T13:25:30.396Z,39.67
2019-02-27T13:27:58.962Z,43.43
2019-02-27T13:30:28.103Z,43.00
2019-02-27T13:33:00.771Z,38.53
2019-02-27T13:35:28.411Z,42.73
2019-02-27T13:37:56.638Z,42.80
2019-02-27T13:40:29.255Z,46.13
2019-02-27T13:42:57.675Z,38.90
2019-02-27T13:45:27.291Z,42.37
2019-02-27T13:47:55.790Z,36.87
2019-02-27T13:50:26.721Z,38.53
2019-02-27T13:52:54.258Z,43.47
2019-02-27T13:55:23.387Z,42.87
2019-02-27T13:57:51.793Z,41.90
2019-02-27T14:00:27.219Z,41.47
2019-02-27T14:02:55.621Z,42.30
2019-02-27T14:05:24.290Z,42.60
2019-02-27T14:07:57.271Z,36.87
2019-02-27T14:10:25.573Z,40.77
2019-02-27T14:12:53.996Z,41.17
2019-02-27T14:15:26.762Z,39.53
2019-02-27T14:17:52.997Z,39.90
2019-02-27T14:20:22.429Z,46.23
2019-02-27T14:22:50.922Z,41.07
2019-02-27T14:25:21.463Z,41.60
2019-02-27T14:27:50.131Z,37.33
2019-02-27T14:30:21.228Z,44.63
2019-02-27T14:32:49.604Z,44.23
2019-02-27T14:35:18.198Z,42.03
2019-02-27T14:37:49.668Z,39.27
2019-02-27T14:40:21.261Z,43.17
2019-02-27T14:42:53.830Z,44.90
2019-02-27T14:45:21.697Z,42.43
2019-02-27T14:47:50.613Z,42.13
2019-02-27T14:50:20.321Z,41.70
2019-02-27T14:52:50.036Z,41.57
2019-02-27T14:55:18.928Z,41.33
2019-02-27T14:57:51.146Z,37.90
2019-02-27T15:00:31.644Z,40.30
2019-02-27T15:03:00.300Z,46.40
2019-02-27T15:05:28.699Z,41.73
2019-02-27T15:07:57.094Z,45.93
2019-02-27T15:10:25.512Z,49.73
2019-02-27T15:12:55.032Z,47.17
2019-02-27T15:15:28.794Z,46.63
2019-02-27T15:17:57.171Z,49.20
2019-02-27T15:20:29.328Z,45.50
2019-02-27T15:22:57.746Z,46.13
2019-02-27T15:25:27.618Z,38.17
2019-02-27T15:27:58.985Z,42.10
2019-02-27T15:30:35.315Z,44.93
2019-02-27T15:33:05.245Z,55.13
2019-02-27T15:35:33.823Z,47.77
2019-02-27T15:38:02.221Z,45.90
2019-02-27T15:40:30.877Z,41.37
2019-02-27T15:42:59.589Z,44.50
2019-02-27T15:45:28.433Z,45.37
2019-02-27T15:47:56.852Z,45.13
2019-02-27T15:50:35.925Z,45.97
2019-02-27T15:53:04.313Z,46.00
2019-02-27T15:55:34.389Z,41.20
2019-02-27T15:58:03.035Z,43.63
2019-02-27T16:00:31.403Z,41.30
2019-02-27T16:03:00.093Z,43.80
2019-02-27T16:05:31.432Z,49.27
2019-02-27T16:07:58.832Z,48.07
2019-02-27T16:10:30.127Z,44.67
2019-02-27T16:13:01.098Z,45.47
2019-02-27T16:15:28.594Z,45.30
2019-02-27T16:17:57.327Z,49.73
2019-02-27T16:20:26.480Z,49.47
2019-02-27T16:22:54.895Z,46.37
2019-02-27T16:25:29.358Z,48.83
2019-02-27T16:27:57.817Z,45.50
2019-02-27T16:30:32.877Z,46.67
2019-02-27T16:33:01.494Z,50.57
2019-02-27T16:35:29.914Z,49.33
2019-02-27T16:37:58.279Z,49.47
2019-02-27T16:40:27.640Z,45.77
2019-02-27T16:42:56.031Z,51.67
2019-02-27T16:45:34.822Z,48.63
2019-02-27T16:48:02.518Z,53.23
2019-02-27T16:50:31.150Z,54.93
2019-02-27T16:52:59.528Z,46.90
2019-02-27T16:55:28.738Z,48.17
2019-02-27T16:57:57.836Z,52.93
2019-02-27T17:00:30.418Z,50.97
2019-02-27T17:02:58.873Z,49.83
2019-02-27T17:05:27.298Z,51.90
2019-02-27T17:08:00.208Z,56.37
2019-02-27T17:10:30.430Z,55.13
2019-02-27T17:12:59.025Z,51.67
2019-02-27T17:15:27.503Z,52.77
2019-02-27T17:17:56.018Z,59.07
2019-02-27T17:20:26.564Z,55.63
2019-02-27T17:22:55.406Z,57.50
2019-02-27T17:25:29.010Z,56.80
2019-02-27T17:27:53.870Z,54.13
2019-02-27T17:30:27.690Z,61.77
2019-02-27T17:32:56.074Z,59.80
2019-02-27T17:35:24.481Z,62.10
2019-02-27T17:37:53.040Z,64.23
2019-02-27T17:40:21.418Z,58.73
2019-02-27T17:42:53.143Z,61.27
2019-02-27T17:45:26.611Z,61.87
2019-02-27T17:47:55.020Z,58.07
2019-02-27T17:50:23.404Z,56.83
2019-02-27T17:52:51.821Z,61.33
2019-02-27T17:55:20.215Z,56.70
2019-02-27T17:57:48.656Z,61.93
2019-02-27T18:00:28.373Z,64.20
2019-02-27T18:02:56.650Z,58.47
2019-02-27T18:05:25.292Z,57.23
2019-02-27T18:07:54.564Z,60.23
2019-02-27T18:10:22.943Z,62.10
2019-02-27T18:12:51.751Z,53.70
2019-02-27T18:15:21.569Z,54.37
2019-02-27T18:17:50.045Z,59.53
2019-02-27T18:20:18.435Z,56.40
2019-02-27T18:22:49.381Z,58.83
2019-02-27T18:25:18.101Z,63.00
2019-02-27T18:27:47.897Z,58.27
2019-02-27T18:30:24.129Z,60.10
2019-02-27T18:32:52.535Z,62.83
2019-02-27T18:35:20.916Z,64.33
2019-02-27T18:37:53.291Z,63.47
2019-02-27T18:40:20.072Z,59.87
2019-02-27T18:42:48.439Z,65.50
2019-02-27T18:45:20.852Z,64.40
2019-02-27T18:47:49.236Z,66.07
2019-02-27T18:50:17.743Z,71.23
2019-02-27T18:52:46.145Z,77.27
2019-02-27T18:55:15.098Z,84.50
2019-02-27T18:57:47.265Z,80.80
2019-02-27T19:00:20.469Z,83.73
2019-02-27T19:02:51.947Z,83.47
2019-02-27T19:05:19.698Z,82.47
2019-02-27T19:07:48.099Z,85.60
2019-02-27T19:10:18.460Z,82.37
2019-02-27T19:12:46.865Z,89.00
2019-02-27T19:15:22.362Z,81.40
2019-02-27T19:17:51.039Z,87.37
2019-02-27T19:20:24.831Z,83.20
2019-02-27T19:22:53.451Z,81.73
2019-02-27T19:25:21.895Z,83.33
2019-02-27T19:27:50.679Z,74.57
2019-02-27T19:30:19.385Z,71.90
2019-02-27T19:32:48.326Z,79.40
2019-02-27T19:35:21.119Z,87.73
2019-02-27T19:37:47.790Z,80.13
2019-02-27T19:40:18.659Z,92.50
2019-02-27T19:43:03.872Z,81.93
2019-02-27T19:45:32.252Z,85.70
2019-02-27T19:48:00.710Z,75.47
2019-02-27T19:50:29.470Z,78.93
2019-02-27T19:53:03.304Z,78.83
2019-02-27T19:55:27.903Z,74.83
2019-02-27T19:57:56.287Z,73.83
2019-02-27T20:00:33.578Z,75.73
2019-02-27T20:03:01.142Z,82.13
2019-02-27T20:05:28.999Z,69.43
2019-02-27T20:07:57.394Z,76.17
2019-02-27T20:10:29.003Z,91.50
2019-02-27T20:12:55.870Z,74.00
2019-02-27T20:15:25.498Z,85.03
2019-02-27T20:17:53.891Z,87.23
2019-02-27T20:20:22.835Z,76.00
2019-02-27T20:22:53.547Z,78.87
2019-02-27T20:25:23.185Z,94.07
2019-02-27T20:27:51.599Z,100.83
2019-02-27T20:30:24.088Z,88.37
2019-02-27T20:32:52.706Z,87.90
2019-02-27T20:35:22.762Z,82.87
2019-02-27T20:37:51.215Z,84.20
2019-02-27T20:40:21.248Z,73.70
2019-02-27T20:42:53.732Z,97.17
2019-02-27T20:45:23.340Z,101.87
2019-02-27T20:47:57.800Z,107.90
2019-02-27T20:50:35.303Z,86.93
2019-02-27T20:53:04.489Z,88.23
2019-02-27T20:55:32.861Z,101.20
2019-02-27T20:58:01.568Z,98.70
2019-02-27T21:00:29.961Z,78.20
2019-02-27T21:03:00.658Z,83.30
2019-02-27T21:05:29.068Z,76.93
2019-02-27T21:08:01.942Z,105.43
2019-02-27T21:10:33.210Z,83.07
2019-02-27T21:13:01.876Z,77.87
2019-02-27T21:18:00.577Z,96.30
2019-02-27T21:20:28.977Z,87.60
2019-02-27T21:23:00.016Z,87.20
2019-02-27T21:25:27.583Z,116.53
2019-02-27T21:27:12.447Z,82.73
2019-02-27T21:27:55.926Z,126.72
2019-02-27T21:30:25.356Z,115.50
2019-02-27T21:32:53.738Z,146.27
2019-02-27T21:35:28.741Z,160.70
2019-02-27T21:37:53.590Z,125.33
2019-02-27T21:40:22.070Z,139.10
2019-02-27T21:42:51.203Z,143.83
2019-02-27T21:45:23.578Z,146.23
2019-02-27T21:47:52.887Z,137.80
2019-02-27T21:50:24.923Z,131.33
2019-02-27T21:52:55.683Z,137.13
2019-02-27T21:55:23.431Z,137.67
2019-02-27T21:57:51.778Z,123.70
2019-02-27T22:00:24.412Z,125.00
2019-02-27T22:02:57.347Z,124.33
2019-02-27T22:05:25.724Z,124.73
2019-02-27T22:07:54.065Z,115.37
2019-02-27T22:10:22.780Z,118.93
2019-02-27T22:12:51.173Z,117.33
2019-02-27T22:15:27.207Z,114.77
2019-02-27T22:17:55.609Z,107.53
2019-02-27T22:20:25.828Z,108.00
2019-02-27T22:22:54.372Z,106.93
2019-02-27T22:25:22.772Z,122.87
2019-02-27T22:27:51.175Z,115.77
2019-02-27T22:30:22.969Z,115.63
2019-02-27T22:32:51.692Z,114.20
2019-02-27T22:35:20.170Z,103.93
2019-02-27T22:37:51.584Z,102.63
2019-02-27T22:40:19.985Z,107.83
2019-02-27T22:42:49.241Z,102.50
2019-02-27T22:45:18.598Z,98.53
2019-02-27T22:47:47.000Z,102.77
2019-02-27T22:50:16.760Z,103.67
2019-02-27T22:52:45.147Z,107.03
2019-02-27T22:55:13.556Z,107.63
2019-02-27T22:57:41.924Z,99.80
2019-02-27T23:00:49.211Z,106.20
2019-02-27T23:03:17.895Z,107.03
2019-02-27T23:05:46.298Z,105.23
2019-02-27T23:08:14.697Z,94.60
2019-02-27T23:10:43.084Z,97.50
2019-02-27T23:13:12.661Z,100.17
2019-02-27T23:15:41.721Z,99.80
2019-02-27T23:18:10.122Z,99.60
2019-02-27T23:20:38.509Z,100.33
2019-02-27T23:23:06.923Z,107.20
2019-02-27T23:25:35.284Z,99.73
2019-02-27T23:28:03.712Z,105.17
2019-02-27T23:30:32.096Z,101.90
2019-02-27T23:33:02.285Z,93.03
2019-02-27T23:35:31.241Z,102.83
2019-02-27T23:38:02.835Z,101.83
2019-02-27T23:40:29.659Z,106.33
2019-02-27T23:43:02.368Z,103.73
2019-02-27T23:45:28.163Z,103.40
2019-02-27T23:47:59.229Z,93.90
2019-02-27T23:50:26.627Z,97.90
2019-02-27T23:52:55.026Z,97.73
2019-02-27T23:55:23.433Z,96.13
2019-02-27T23:57:51.886Z,96.83
